createdAt,value
2023-03-27T00:02:28.788Z,1.10
2023-03-27T00:05:14.956Z,0.60
2023-03-27T00:08:01.674Z,0.60
2023-03-27T00:10:48.068Z,0.70
2023-03-27T00:13:34.037Z,0.70
2023-03-27T00:16:21.833Z,0.90
2023-03-27T00:19:07.515Z,0.68
2023-03-27T00:21:53.364Z,0.88
2023-03-27T00:24:38.813Z,0.88
2023-03-27T00:27:25.127Z,1.00
2023-03-27T00:30:10.834Z,0.73
2023-03-27T00:32:56.874Z,0.70
2023-03-27T00:35:50.111Z,1.10
2023-03-27T00:38:35.777Z,1.00
2023-03-27T00:41:22.143Z,0.95
2023-03-27T00:44:22.048Z,1.10
2023-03-27T00:47:10.268Z,1.00
2023-03-27T00:49:55.971Z,1.08
2023-03-27T00:52:44.524Z,0.85
2023-03-27T00:55:34.018Z,1.05
2023-03-27T00:58:42.046Z,0.90
2023-03-27T01:01:30.343Z,0.77
2023-03-27T01:04:20.438Z,0.82
2023-03-27T01:07:10.132Z,0.85
2023-03-27T01:09:56.373Z,1.17
2023-03-27T01:13:09.216Z,0.82
2023-03-27T01:16:05.856Z,0.80
2023-03-27T01:19:05.069Z,0.70
2023-03-27T01:22:22.396Z,0.68
2023-03-27T01:25:38.593Z,0.95
2023-03-27T01:28:42.448Z,0.70
2023-03-27T01:31:59.851Z,0.90
2023-03-27T01:35:04.362Z,1.00
2023-03-27T01:38:09.977Z,1.13
2023-03-27T01:41:04.158Z,0.80
2023-03-27T01:44:04.711Z,0.93
2023-03-27T01:46:58.472Z,0.90
2023-03-27T01:49:54.910Z,1.02
2023-03-27T01:52:44.070Z,0.82
2023-03-27T01:55:36.448Z,1.00
2023-03-27T02:01:39.316Z,1.00
2023-03-27T02:04:49.000Z,1.00
2023-03-27T02:07:43.747Z,0.75
2023-03-27T02:10:36.051Z,0.88
2023-03-27T02:13:38.828Z,1.27
2023-03-27T02:16:28.808Z,0.85
2023-03-27T02:19:26.554Z,1.08
2023-03-27T02:22:12.555Z,1.20
2023-03-27T02:25:23.178Z,1.10
2023-03-27T02:28:28.159Z,0.82
2023-03-27T02:32:06.974Z,0.80
2023-03-27T02:35:02.773Z,1.30
2023-03-27T02:38:08.349Z,1.27
2023-03-27T02:41:38.512Z,0.73
2023-03-27T02:44:52.665Z,1.00
2023-03-27T02:47:52.690Z,0.90
2023-03-27T02:51:01.111Z,0.82
2023-03-27T02:53:53.045Z,0.70
2023-03-27T02:56:46.187Z,0.98
2023-03-27T02:59:45.325Z,0.82
2023-03-27T03:02:33.595Z,0.60
2023-03-27T03:05:22.826Z,0.85
2023-03-27T03:08:10.256Z,0.75
2023-03-27T03:11:01.441Z,0.80
2023-03-27T03:13:46.914Z,1.25
2023-03-27T03:16:32.430Z,1.30
2023-03-27T03:19:17.850Z,1.50
2023-03-27T03:22:04.631Z,1.70
2023-03-27T03:24:51.429Z,1.67
2023-03-27T03:27:38.118Z,1.27
2023-03-27T03:30:30.082Z,1.80
2023-03-27T03:33:21.851Z,1.77
2023-03-27T03:36:09.065Z,1.50
2023-03-27T03:38:57.426Z,1.15
2023-03-27T03:41:43.106Z,1.48
2023-03-27T03:44:28.520Z,0.80
2023-03-27T03:47:15.226Z,1.10
2023-03-27T03:50:00.535Z,1.30
2023-03-27T03:52:48.973Z,1.33
2023-03-27T03:55:34.499Z,1.80
2023-03-27T03:58:20.173Z,1.00
2023-03-27T04:01:05.678Z,1.30
2023-03-27T04:04:09.132Z,1.42
2023-03-27T04:07:17.605Z,1.10
2023-03-27T04:10:05.558Z,0.90
2023-03-27T04:12:51.186Z,1.05
2023-03-27T04:15:48.126Z,1.27
2023-03-27T04:18:46.173Z,0.95
2023-03-27T04:21:37.519Z,0.80
2023-03-27T04:24:23.979Z,0.88
2023-03-27T04:27:10.905Z,1.00
2023-03-27T04:30:15.637Z,0.90
2023-03-27T04:33:26.675Z,1.00
2023-03-27T04:36:35.050Z,0.70
2023-03-27T04:39:29.506Z,1.00
2023-03-27T04:42:15.224Z,1.10
2023-03-27T04:45:01.467Z,1.58
2023-03-27T04:47:48.855Z,1.77
2023-03-27T04:50:35.813Z,1.70
2023-03-27T04:53:23.257Z,1.85
2023-03-27T04:56:09.553Z,1.58
2023-03-27T04:58:58.249Z,1.70
2023-03-27T05:01:43.911Z,2.55
2023-03-27T05:04:38.752Z,2.25
2023-03-27T05:07:37.716Z,2.33
2023-03-27T05:10:24.812Z,2.33
2023-03-27T05:13:11.574Z,1.85
2023-03-27T05:15:59.113Z,2.50
2023-03-27T05:18:46.165Z,2.92
2023-03-27T05:21:31.792Z,2.38
2023-03-27T05:24:18.304Z,2.03
2023-03-27T05:27:04.919Z,2.58
2023-03-27T05:29:50.767Z,2.53
2023-03-27T05:32:36.184Z,2.05
2023-03-27T05:35:31.612Z,1.95
2023-03-27T05:38:19.258Z,2.17
2023-03-27T05:41:25.505Z,1.58
2023-03-27T05:44:11.593Z,1.73
2023-03-27T05:47:01.182Z,1.08
2023-03-27T05:49:48.250Z,1.17
2023-03-27T05:52:34.031Z,1.08
2023-03-27T05:55:20.829Z,1.08
2023-03-27T05:58:09.721Z,1.10
2023-03-27T06:00:55.370Z,1.13
2023-03-27T06:03:40.899Z,1.10
2023-03-27T06:06:33.835Z,1.10
2023-03-27T06:09:19.069Z,1.35
2023-03-27T06:12:23.980Z,1.20
2023-03-27T06:15:18.388Z,1.40
2023-03-27T06:18:11.203Z,1.55
2023-03-27T06:20:57.968Z,1.30
2023-03-27T06:23:45.763Z,1.17
2023-03-27T06:26:34.823Z,1.15
2023-03-27T06:29:21.683Z,1.40
2023-03-27T06:32:09.631Z,1.10
2023-03-27T06:35:00.636Z,1.10
2023-03-27T06:38:12.742Z,0.80
2023-03-27T06:40:59.784Z,0.88
2023-03-27T06:44:00.243Z,0.70
2023-03-27T06:47:04.193Z,0.80
2023-03-27T06:49:58.093Z,0.73
2023-03-27T06:52:43.588Z,0.70
2023-03-27T06:55:49.537Z,0.90
2023-03-27T06:58:36.439Z,0.80
2023-03-27T07:01:24.842Z,0.80
2023-03-27T07:04:22.655Z,0.52
2023-03-27T07:07:34.682Z,0.75
2023-03-27T07:10:21.074Z,0.80
2023-03-27T07:13:07.338Z,0.50
2023-03-27T07:15:52.760Z,0.77
2023-03-27T07:18:38.766Z,1.30
2023-03-27T07:21:25.240Z,0.60
2023-03-27T07:24:10.643Z,0.77
2023-03-27T07:26:56.430Z,0.50
2023-03-27T07:29:48.882Z,0.60
2023-03-27T07:32:42.945Z,0.32
2023-03-27T07:35:28.677Z,0.75
2023-03-27T07:38:36.668Z,0.57
2023-03-27T07:41:42.344Z,0.60
2023-03-27T07:44:40.390Z,0.73
2023-03-27T07:47:28.553Z,0.57
2023-03-27T07:50:19.044Z,0.65
2023-03-27T07:53:06.278Z,0.70
2023-03-27T07:55:54.371Z,0.90
2023-03-27T07:58:40.398Z,0.80
2023-03-27T08:01:26.172Z,0.80
2023-03-27T08:04:11.872Z,0.80
2023-03-27T08:07:00.471Z,0.90
2023-03-27T08:09:45.859Z,0.80
2023-03-27T08:12:33.130Z,0.77
2023-03-27T08:15:19.692Z,0.80
2023-03-27T08:18:06.769Z,0.90
2023-03-27T08:20:59.603Z,1.17
2023-03-27T08:23:45.590Z,1.10
2023-03-27T08:26:57.660Z,0.93
2023-03-27T08:29:44.777Z,1.00
2023-03-27T08:32:29.882Z,1.23
2023-03-27T08:35:15.366Z,1.10
2023-03-27T08:38:01.153Z,0.70
2023-03-27T08:41:38.374Z,0.80
2023-03-27T08:44:32.998Z,1.15
2023-03-27T08:47:33.597Z,0.80
2023-03-27T08:50:36.707Z,0.98
2023-03-27T08:53:50.544Z,1.00
2023-03-27T08:56:40.942Z,0.75
2023-03-27T08:59:29.923Z,0.80
2023-03-27T09:02:25.250Z,0.60
2023-03-27T09:05:37.278Z,0.90
2023-03-27T09:08:46.872Z,0.77
2023-03-27T09:11:48.825Z,0.80
2023-03-27T09:14:42.825Z,0.85
2023-03-27T09:17:36.270Z,1.40
2023-03-27T09:20:33.433Z,1.13
2023-03-27T09:23:30.867Z,1.10
2023-03-27T09:26:36.541Z,1.10
2023-03-27T09:29:29.907Z,1.45
2023-03-27T09:32:25.300Z,1.30
2023-03-27T09:35:20.507Z,1.10
2023-03-27T09:38:37.064Z,1.08
2023-03-27T09:41:31.270Z,1.30
2023-03-27T09:44:25.542Z,1.38
2023-03-27T09:47:42.531Z,1.05
2023-03-27T09:50:41.354Z,1.30
2023-03-27T09:53:32.619Z,1.67
2023-03-27T09:56:23.896Z,1.00
2023-03-27T09:59:32.990Z,1.00
2023-03-27T10:02:30.591Z,0.90
2023-03-27T10:05:20.027Z,1.20
2023-03-27T10:08:37.644Z,1.08
2023-03-27T10:11:31.613Z,1.05
2023-03-27T10:14:26.981Z,1.50
2023-03-27T10:17:24.296Z,2.65
2023-03-27T10:20:19.059Z,1.88
2023-03-27T10:23:22.696Z,1.70
2023-03-27T10:26:13.062Z,1.92
2023-03-27T10:29:22.283Z,1.60
2023-03-27T10:32:08.136Z,1.33
2023-03-27T10:35:36.177Z,1.48
2023-03-27T10:38:32.954Z,2.10
2023-03-27T10:41:41.008Z,1.42
2023-03-27T10:44:28.484Z,1.17
2023-03-27T10:47:24.542Z,1.40
2023-03-27T10:50:21.780Z,1.42
2023-03-27T10:53:19.769Z,0.90
2023-03-27T10:56:34.706Z,1.25
2023-03-27T10:59:40.979Z,1.05
2023-03-27T11:02:39.880Z,1.20
2023-03-27T11:05:36.188Z,1.23
2023-03-27T11:08:38.231Z,1.08
2023-03-27T11:11:32.092Z,1.17
2023-03-27T11:14:31.305Z,1.42
2023-03-27T11:17:23.576Z,1.25
2023-03-27T11:20:43.559Z,1.48
2023-03-27T11:23:52.757Z,1.05
2023-03-27T11:26:55.756Z,1.25
2023-03-27T11:30:02.710Z,1.20
2023-03-27T11:33:36.782Z,1.40
2023-03-27T11:36:39.679Z,1.35
2023-03-27T11:39:53.964Z,1.58
2023-03-27T11:42:43.888Z,0.95
2023-03-27T11:46:01.655Z,0.93
2023-03-27T11:49:05.442Z,0.95
2023-03-27T11:52:01.739Z,1.17
2023-03-27T11:55:24.803Z,0.98
2023-03-27T11:58:34.882Z,1.20
2023-03-27T12:01:33.206Z,0.93
2023-03-27T12:04:40.476Z,1.00
2023-03-27T12:07:55.949Z,1.23
2023-03-27T12:10:46.249Z,1.08
2023-03-27T12:14:08.901Z,0.90
2023-03-27T12:17:37.924Z,1.17
2023-03-27T12:20:58.949Z,1.65
2023-03-27T12:24:07.429Z,1.38
2023-03-27T12:27:50.018Z,1.60
2023-03-27T12:31:13.322Z,2.05
2023-03-27T12:34:06.091Z,1.80
2023-03-27T12:36:52.338Z,1.60
2023-03-27T12:39:57.090Z,1.58
2023-03-27T12:42:49.217Z,1.55
2023-03-27T12:45:44.146Z,1.30
2023-03-27T12:48:58.206Z,1.40
2023-03-27T12:52:04.799Z,1.30
2023-03-27T12:55:19.041Z,1.45
2023-03-27T12:58:33.330Z,1.20
2023-03-27T13:01:51.781Z,1.13
2023-03-27T13:05:01.507Z,1.00
2023-03-27T13:08:07.265Z,1.20
2023-03-27T13:11:33.492Z,1.60
2023-03-27T13:14:32.623Z,0.93
2023-03-27T13:17:37.850Z,1.00
2023-03-27T13:20:47.007Z,1.25
2023-03-27T13:24:15.283Z,1.10
2023-03-27T13:27:19.435Z,1.08
2023-03-27T13:30:06.523Z,1.05
2023-03-27T13:33:16.177Z,1.10
2023-03-27T13:36:17.710Z,1.23
2023-03-27T13:39:05.347Z,1.00
2023-03-27T13:41:56.596Z,1.05
2023-03-27T13:45:04.494Z,1.00
2023-03-27T13:48:18.933Z,1.13
2023-03-27T13:51:26.450Z,0.90
2023-03-27T13:54:33.567Z,1.13
2023-03-27T13:57:52.897Z,0.70
2023-03-27T14:00:56.727Z,0.90
2023-03-27T14:04:22.679Z,1.10
2023-03-27T14:07:27.454Z,0.88
2023-03-27T14:10:36.940Z,1.63
2023-03-27T14:13:47.937Z,1.00
2023-03-27T14:16:59.400Z,1.10
2023-03-27T14:19:57.590Z,1.38
2023-03-27T14:23:05.674Z,1.27
2023-03-27T14:26:18.591Z,1.25
2023-03-27T14:29:05.229Z,0.95
2023-03-27T14:32:06.835Z,1.10
2023-03-27T14:34:56.821Z,0.98
2023-03-27T14:38:03.447Z,1.02
2023-03-27T14:41:05.595Z,0.98
2023-03-27T14:44:05.201Z,1.17
2023-03-27T14:47:09.967Z,1.02
2023-03-27T14:50:01.585Z,1.50
2023-03-27T14:52:58.942Z,1.73
2023-03-27T14:56:12.766Z,1.63
2023-03-27T14:59:24.278Z,1.42
2023-03-27T15:02:34.954Z,1.88
2023-03-27T15:05:23.750Z,1.10
2023-03-27T15:08:19.503Z,1.20
2023-03-27T15:11:39.916Z,1.33
2023-03-27T15:14:32.108Z,1.30
2023-03-27T15:17:20.100Z,1.40
2023-03-27T15:20:10.987Z,1.15
2023-03-27T15:23:00.835Z,1.00
2023-03-27T15:26:00.280Z,1.20
2023-03-27T15:29:01.628Z,1.00
2023-03-27T15:31:48.989Z,0.80
2023-03-27T15:34:46.111Z,1.30
2023-03-27T15:37:32.855Z,1.23
2023-03-27T15:40:32.860Z,1.00
2023-03-27T15:43:24.276Z,1.25
2023-03-27T15:46:15.797Z,1.20
2023-03-27T15:49:27.885Z,1.00
2023-03-27T15:52:31.597Z,1.10
2023-03-27T15:55:47.188Z,1.00
2023-03-27T15:58:51.152Z,1.20
2023-03-27T16:01:42.722Z,0.95
2023-03-27T16:04:39.469Z,1.13
2023-03-27T16:07:38.725Z,1.25
2023-03-27T16:10:32.591Z,1.20
2023-03-27T16:13:41.857Z,1.10
2023-03-27T16:16:34.182Z,0.98
2023-03-27T16:19:19.506Z,0.98
2023-03-27T16:22:04.754Z,1.75
2023-03-27T16:24:50.478Z,1.25
2023-03-27T16:27:38.548Z,1.20
2023-03-27T16:30:26.876Z,1.60
2023-03-27T16:33:16.058Z,1.27
2023-03-27T16:36:02.348Z,1.35
2023-03-27T16:38:47.819Z,1.27
2023-03-27T16:41:33.146Z,1.30
2023-03-27T16:44:19.826Z,1.00
2023-03-27T16:47:05.274Z,1.20
2023-03-27T16:50:07.987Z,0.88
2023-03-27T16:52:55.767Z,1.02
2023-03-27T16:55:41.466Z,1.10
2023-03-27T16:58:27.030Z,1.20
2023-03-27T17:01:12.666Z,1.10
2023-03-27T17:03:57.630Z,0.80
2023-03-27T17:06:43.080Z,1.08
2023-03-27T17:09:28.411Z,1.27
2023-03-27T17:12:13.880Z,1.38
2023-03-27T17:14:59.388Z,1.58
2023-03-27T17:17:45.934Z,1.00
2023-03-27T17:20:31.505Z,1.50
2023-03-27T17:23:17.615Z,1.77
2023-03-27T17:26:04.331Z,1.05
2023-03-27T17:28:49.602Z,1.17
2023-03-27T17:31:35.330Z,1.10
2023-03-27T17:34:20.608Z,1.38
2023-03-27T17:37:06.029Z,1.13
2023-03-27T17:39:51.680Z,1.30
2023-03-27T17:42:37.374Z,1.05
2023-03-27T17:45:23.899Z,1.20
2023-03-27T17:48:11.493Z,1.00
2023-03-27T17:51:08.059Z,1.00
2023-03-27T17:53:54.716Z,0.98
2023-03-27T17:56:40.900Z,1.40
2023-03-27T17:59:27.729Z,1.45
2023-03-27T18:02:18.717Z,1.33
2023-03-27T18:05:05.131Z,1.38
2023-03-27T18:07:50.295Z,1.50
2023-03-27T18:10:36.170Z,1.20
2023-03-27T18:13:21.255Z,1.52
2023-03-27T18:16:10.581Z,1.05
2023-03-27T18:18:57.405Z,0.80
2023-03-27T18:21:42.574Z,1.00
2023-03-27T18:24:28.483Z,1.00
2023-03-27T18:27:13.796Z,1.20
2023-03-27T18:29:59.696Z,0.93
2023-03-27T18:32:46.432Z,1.13
2023-03-27T18:35:32.595Z,1.60
2023-03-27T18:38:18.240Z,1.50
2023-03-27T18:41:03.668Z,1.10
2023-03-27T18:43:49.045Z,1.80
2023-03-27T18:46:34.556Z,1.52
2023-03-27T18:49:25.080Z,1.60
2023-03-27T18:52:12.661Z,1.30
2023-03-27T18:54:58.331Z,1.25
2023-03-27T18:57:45.100Z,1.40
2023-03-27T19:00:30.749Z,1.67
2023-03-27T19:03:20.062Z,1.92
2023-03-27T19:06:07.896Z,1.30
2023-03-27T19:08:53.521Z,1.75
2023-03-27T19:11:39.655Z,2.33
2023-03-27T19:14:25.308Z,1.83
2023-03-27T19:17:31.287Z,1.55
2023-03-27T19:20:36.910Z,1.60
2023-03-27T19:23:51.811Z,1.23
2023-03-27T19:26:40.265Z,1.67
2023-03-27T19:29:25.826Z,1.15
2023-03-27T19:32:12.794Z,1.48
2023-03-27T19:34:58.326Z,1.70
2023-03-27T19:37:44.031Z,1.45
2023-03-27T19:40:29.539Z,2.30
2023-03-27T19:43:15.677Z,1.60
2023-03-27T19:46:14.958Z,1.60
2023-03-27T19:49:01.606Z,1.40
2023-03-27T19:51:57.504Z,1.00
2023-03-27T19:54:43.041Z,0.85
2023-03-27T19:57:28.396Z,1.20
2023-03-27T20:00:15.326Z,1.13
2023-03-27T20:03:01.658Z,1.73
2023-03-27T20:05:49.041Z,1.33
2023-03-27T20:08:37.776Z,1.10
2023-03-27T20:11:26.923Z,1.23
2023-03-27T20:14:12.785Z,1.40
2023-03-27T20:16:58.409Z,1.48
2023-03-27T20:19:48.675Z,1.80
2023-03-27T20:22:40.758Z,1.90
2023-03-27T20:25:34.194Z,2.47
2023-03-27T20:28:19.387Z,2.25
2023-03-27T20:31:06.112Z,2.35
2023-03-27T20:33:53.229Z,1.90
2023-03-27T20:36:43.273Z,1.70
2023-03-27T20:39:51.941Z,1.90
2023-03-27T20:42:46.739Z,1.63
2023-03-27T20:45:32.107Z,2.08
2023-03-27T20:48:18.161Z,2.47
2023-03-27T20:51:07.582Z,1.60
2023-03-27T20:53:57.186Z,1.73
2023-03-27T20:56:44.208Z,1.63
2023-03-27T20:59:31.139Z,1.48
2023-03-27T21:02:18.402Z,1.13
2023-03-27T21:05:04.233Z,1.38
2023-03-27T21:07:51.694Z,1.23
2023-03-27T21:10:38.590Z,1.30
2023-03-27T21:13:23.968Z,1.17
2023-03-27T21:16:09.764Z,1.50
2023-03-27T21:18:55.363Z,1.35
2023-03-27T21:21:41.190Z,1.50
2023-03-27T21:24:26.950Z,1.70
2023-03-27T21:27:12.525Z,1.75
2023-03-27T21:29:58.034Z,1.52
2023-03-27T21:32:43.315Z,1.55
2023-03-27T21:35:28.591Z,1.67
2023-03-27T21:38:15.550Z,2.35
2023-03-27T21:41:02.834Z,2.25
2023-03-27T21:43:48.136Z,1.90
2023-03-27T21:46:34.043Z,2.10
2023-03-27T21:49:19.384Z,1.60
2023-03-27T21:52:05.445Z,1.20
2023-03-27T21:55:02.398Z,1.25
2023-03-27T21:57:49.011Z,1.23
2023-03-27T22:00:34.641Z,1.33
2023-03-27T22:03:20.857Z,1.15
2023-03-27T22:06:12.182Z,1.13
2023-03-27T22:08:58.630Z,1.25
2023-03-27T22:11:44.262Z,1.45
2023-03-27T22:14:29.737Z,1.00
2023-03-27T22:17:15.550Z,1.52
2023-03-27T22:20:01.211Z,1.67
2023-03-27T22:22:48.328Z,3.20
2023-03-27T22:25:33.485Z,3.20
2023-03-27T22:28:19.124Z,2.75
2023-03-27T22:31:04.801Z,2.65
2023-03-27T22:33:50.379Z,2.88
2023-03-27T22:36:35.963Z,3.03
2023-03-27T22:39:21.278Z,2.10
2023-03-27T22:42:06.945Z,2.08
2023-03-27T22:44:52.391Z,1.70
2023-03-27T22:47:37.888Z,1.65
2023-03-27T22:50:23.377Z,1.48
2023-03-27T22:53:08.962Z,1.70
2023-03-27T22:55:56.901Z,1.60
2023-03-27T22:58:43.178Z,1.95
2023-03-27T23:01:28.545Z,2.53
2023-03-27T23:04:14.160Z,2.13
2023-03-27T23:07:03.154Z,1.40
2023-03-27T23:09:48.514Z,1.13
2023-03-27T23:12:34.193Z,0.90
2023-03-27T23:15:30.336Z,1.00
2023-03-27T23:18:16.445Z,1.10
2023-03-27T23:21:11.220Z,1.67
2023-03-27T23:23:56.827Z,1.50
2023-03-27T23:26:42.148Z,1.15
2023-03-27T23:29:27.614Z,1.27
2023-03-27T23:32:12.999Z,1.30
2023-03-27T23:34:58.525Z,1.30
2023-03-27T23:37:44.064Z,1.40
2023-03-27T23:40:29.541Z,1.27
2023-03-27T23:43:14.998Z,1.00
2023-03-27T23:46:01.183Z,0.90
2023-03-27T23:48:46.789Z,1.50
2023-03-27T23:51:32.265Z,1.20
2023-03-27T23:54:17.830Z,1.08
2023-03-27T23:57:03.890Z,1.50
2023-03-27T23:59:49.338Z,0.65
